Salvage, Canada
Current Conditions -  °F | °C
As of 2:00 PM on Thursday 23 Oct 2014 (Local Time) from CYQX Reporting Station
Broken Clouds Broken Clouds  
Wind Chill: 52°   Ceiling: 18000
Heat Index: 52°   Visibility: 20mi
Dew Point: 39°   Wind: 6mph
Humidity: 62%   Direction: 190°S
Pressure: 30.31"   Gusts: NA
Location:  48.67°N, 53.65°W
Report Text: CYQX 231600Z 19005KT 120V210 20SM FEW080 BKN180 BKN260 11/04 A3031 RMK AC1AC4CI2 SC TR SLP268
Loading
Personal Weather Stations






























Interactive Weather Map
Tropical Storm Tracking
New forecast layout! Learn more

10-Day Weather Forecast

Advertisements
Track Severe Weather on mobile